createdAt,value
2018-05-24T00:00:04.939Z,72.39
2018-05-24T00:01:05.190Z,73.41
2018-05-24T00:02:04.948Z,73.26
2018-05-24T00:03:05.201Z,73.03
2018-05-24T00:04:05.197Z,73.22
2018-05-24T00:05:05.174Z,73.22
2018-05-24T00:06:04.922Z,73.32
2018-05-24T00:07:05.181Z,73.22
2018-05-24T00:08:05.156Z,73.22
2018-05-24T00:09:05.171Z,73.32
2018-05-24T00:10:04.896Z,73.51
2018-05-24T00:11:04.905Z,73.41
2018-05-24T00:12:05.140Z,73.7
2018-05-24T00:13:05.154Z,73.9
2018-05-24T00:14:05.148Z,73.8
2018-05-24T00:15:04.887Z,73.8
2018-05-24T00:16:05.121Z,74.18
2018-05-24T00:17:04.864Z,74.37
2018-05-24T00:18:05.143Z,74.57
2018-05-24T00:19:04.867Z,73.99
2018-05-24T00:20:04.876Z,74.37
2018-05-24T00:21:04.844Z,74.57
2018-05-24T00:22:04.851Z,74.37
2018-05-24T00:23:05.094Z,74.66
2018-05-24T00:24:05.105Z,74.85
2018-05-24T00:25:05.082Z,74.85
2018-05-24T00:26:04.836Z,74.85
2018-05-24T00:27:05.076Z,75.14
2018-05-24T00:28:05.098Z,74.95
2018-05-24T00:29:05.074Z,75.04
2018-05-24T00:30:05.066Z,74.85
2018-05-24T00:31:05.064Z,74.85
2018-05-24T00:32:05.073Z,74.85
2018-05-24T00:33:04.790Z,75.23
2018-05-24T00:34:04.794Z,75.14
2018-05-24T00:35:04.795Z,75.14
2018-05-24T00:36:05.060Z,75.14
2018-05-24T00:37:04.775Z,75.04
2018-05-24T00:38:05.041Z,75.23
2018-05-24T00:39:05.218Z,75.23
2018-05-24T00:40:04.773Z,75.1
2018-05-24T00:41:05.010Z,75.04
2018-05-24T00:42:05.023Z,75.01
2018-05-24T00:43:04.998Z,75.1
2018-05-24T00:44:05.018Z,75.68
2018-05-24T00:45:04.739Z,76.35
2018-05-24T00:46:04.734Z,75.96
2018-05-24T00:47:04.979Z,76.25
2018-05-24T00:48:04.992Z,76.15
2018-05-24T00:49:04.986Z,76.25
2018-05-24T00:50:04.721Z,76.44
2018-05-24T00:51:04.968Z,76.64
2018-05-24T00:52:04.700Z,76.54
2018-05-24T00:53:04.968Z,76.92
2018-05-24T00:54:04.696Z,77.21
2018-05-24T00:55:04.701Z,77.59
2018-05-24T00:56:04.683Z,77.31
2018-05-24T00:57:04.692Z,77.31
2018-05-24T00:58:04.930Z,77.31
2018-05-24T00:59:04.920Z,77.5
2018-05-24T01:00:04.679Z,77.94
2018-05-24T01:01:04.658Z,78.27
2018-05-24T01:02:04.911Z,77.94
2018-05-24T01:03:04.905Z,77.84
2018-05-24T01:04:04.658Z,78.22
2018-05-24T01:05:04.667Z,78.42
2018-05-24T01:06:04.638Z,78.51
2018-05-24T01:07:04.881Z,78.22
2018-05-24T01:08:04.883Z,78.32
2018-05-24T01:09:04.635Z,78.89
2018-05-24T01:10:04.881Z,78.99
2018-05-24T01:11:04.875Z,79.18
2018-05-24T01:12:04.626Z,78.7
2018-05-24T01:13:04.853Z,78.7
2018-05-24T01:14:04.866Z,79.37
2018-05-24T01:15:04.849Z,79.85
2018-05-24T01:16:04.599Z,79.66
2018-05-24T01:17:04.584Z,79.95
2018-05-24T01:18:04.835Z,79.85
2018-05-24T01:19:04.827Z,80.04
2018-05-24T01:20:04.840Z,80.33
2018-05-24T01:21:04.833Z,80.04
2018-05-24T01:22:04.814Z,80.33
2018-05-24T01:23:04.549Z,80.71
2018-05-24T01:24:04.824Z,81.1
2018-05-24T01:25:04.538Z,80.87
2018-05-24T01:26:04.815Z,80.67
2018-05-24T01:27:04.529Z,80.58
2018-05-24T01:28:04.538Z,80.58
2018-05-24T01:29:04.517Z,80.96
2018-05-24T01:30:04.528Z,81.05
2018-05-24T01:31:04.508Z,81.25
2018-05-24T01:32:04.787Z,81.63
2018-05-24T01:33:04.750Z,81.82
2018-05-24T01:34:04.752Z,82.11
2018-05-24T01:35:04.488Z,81.92
2018-05-24T01:36:04.496Z,81.82
2018-05-24T01:37:04.752Z,81.92
2018-05-24T01:38:04.478Z,82.11
2018-05-24T01:39:04.721Z,82.11
2018-05-24T01:40:04.713Z,81.82
2018-05-24T01:41:04.727Z,82.3
2018-05-24T01:42:04.455Z,82.01
2018-05-24T01:43:04.460Z,82.87
2018-05-24T01:44:04.439Z,82.3
2018-05-24T01:45:04.449Z,82.4
2018-05-24T01:46:04.685Z,82.68
2018-05-24T01:47:04.446Z,82.78
2018-05-24T01:48:04.417Z,82.49
2018-05-24T01:49:04.432Z,83.4
2018-05-24T01:50:04.672Z,83.22
2018-05-24T01:51:04.659Z,83.6
2018-05-24T01:52:04.672Z,83.6
2018-05-24T01:53:04.671Z,83.79
2018-05-24T01:54:04.657Z,84.17
2018-05-24T01:55:04.637Z,84.17
2018-05-24T01:56:04.631Z,84.46
2018-05-24T01:57:04.384Z,84.27
2018-05-24T01:58:04.631Z,84.46
2018-05-24T01:59:04.630Z,84.08
2018-05-24T02:00:04.356Z,84.46
2018-05-24T02:01:04.624Z,84.75
2018-05-24T02:02:04.596Z,84.36
2018-05-24T02:03:04.609Z,84.55
2018-05-24T02:04:04.336Z,84.94
2018-05-24T02:05:04.603Z,84.84
2018-05-24T02:06:04.329Z,84.65
2018-05-24T02:07:04.328Z,84.84
2018-05-24T02:08:04.319Z,84.75
2018-05-24T02:09:04.304Z,85.03
2018-05-24T02:10:04.571Z,85.13
2018-05-24T02:11:04.317Z,85.51
2018-05-24T02:12:04.559Z,85.61
2018-05-24T02:13:04.283Z,85.41
2018-05-24T02:14:04.285Z,85.32
2018-05-24T02:15:04.545Z,85.41
2018-05-24T02:16:04.524Z,85.89
2018-05-24T02:17:04.535Z,85.51
2018-05-24T02:18:04.252Z,85.61
2018-05-24T02:19:04.265Z,85.32
2018-05-24T02:20:04.494Z,85.89
2018-05-24T02:21:04.254Z,85.61
2018-05-24T02:22:04.509Z,85.89
2018-05-24T02:23:04.240Z,85.8
2018-05-24T02:24:04.220Z,85.99
2018-05-24T02:25:04.466Z,86.57
2018-05-24T02:26:04.217Z,86.66
2018-05-24T02:27:04.221Z,86.08
2018-05-24T02:28:04.221Z,86.18
2018-05-24T02:29:04.593Z,85.99
2018-05-24T02:30:04.198Z,85.99
2018-05-24T02:31:04.186Z,85.99
2018-05-24T02:32:04.188Z,86.37
2018-05-24T02:33:04.423Z,86.47
2018-05-24T02:34:04.187Z,86.76
2018-05-24T02:35:04.428Z,87.04
2018-05-24T02:36:04.931Z,86.85
2018-05-24T02:37:04.145Z,87.14
2018-05-24T02:38:04.418Z,86.94
2018-05-24T02:39:04.392Z,86.76
2018-05-24T02:40:04.441Z,86.47
2018-05-24T02:41:04.121Z,87.23
2018-05-24T02:42:04.138Z,86.85
2018-05-24T02:43:04.130Z,87.04
2018-05-24T02:44:04.121Z,87.23
2018-05-24T02:45:04.354Z,87.23
2018-05-24T02:46:04.110Z,87.23
2018-05-24T02:47:04.088Z,86.94
2018-05-24T02:48:04.363Z,87.33
2018-05-24T02:49:04.329Z,87.23
2018-05-24T02:50:04.357Z,87.14
2018-05-24T02:51:04.323Z,87.04
2018-05-24T02:52:04.078Z,87.33
2018-05-24T02:53:04.326Z,87.23
2018-05-24T02:54:04.061Z,87.33
2018-05-24T02:55:04.058Z,87.23
2018-05-24T02:56:04.050Z,87.14
2018-05-24T02:57:04.537Z,87.14
2018-05-24T02:58:04.296Z,87.23
2018-05-24T02:59:04.293Z,87.23
2018-05-24T03:00:04.292Z,87.71
2018-05-24T03:01:04.008Z,87.33
2018-05-24T03:02:04.011Z,87.33
2018-05-24T03:03:04.258Z,87.33
2018-05-24T03:04:04.293Z,87.81
2018-05-24T03:05:03.983Z,87.9
2018-05-24T03:06:04.270Z,88.19
2018-05-24T03:07:03.988Z,87.62
2018-05-24T03:08:04.224Z,87.9
2018-05-24T03:09:04.237Z,87.62
2018-05-24T03:10:03.985Z,88.19
2018-05-24T03:11:04.223Z,87.81
2018-05-24T03:12:03.943Z,87.9
2018-05-24T03:13:03.939Z,87.81
2018-05-24T03:14:03.942Z,87.81
2018-05-24T03:15:03.942Z,88
2018-05-24T03:16:03.937Z,87.71
2018-05-24T03:17:04.168Z,88.09
2018-05-24T03:18:03.918Z,87.81
2018-05-24T03:19:03.904Z,88.09
2018-05-24T03:20:04.179Z,88.19
2018-05-24T03:21:03.891Z,88.19
2018-05-24T03:22:04.160Z,87.81
2018-05-24T03:23:03.880Z,87.81
2018-05-24T03:24:04.150Z,87.81
2018-05-24T03:25:03.873Z,87.23
2018-05-24T03:26:03.867Z,87.52
2018-05-24T03:27:03.858Z,87.62
2018-05-24T03:28:04.117Z,87.04
2018-05-24T03:29:04.122Z,87.33
2018-05-24T03:30:03.865Z,86.85
2018-05-24T03:31:04.100Z,86.99
2018-05-24T03:32:04.108Z,86.51
2018-05-24T03:33:03.835Z,86.51
2018-05-24T03:34:04.088Z,86.61
2018-05-24T03:35:03.814Z,86.51
2018-05-24T03:36:03.824Z,85.84
2018-05-24T03:37:04.060Z,85.75
2018-05-24T03:38:03.813Z,85.84
2018-05-24T03:39:04.050Z,85.75
2018-05-24T03:40:04.059Z,85.21
2018-05-24T03:41:03.785Z,85.12
2018-05-24T03:42:04.035Z,84.55
2018-05-24T03:43:04.029Z,83.34
2018-05-24T03:44:04.041Z,83.05
2018-05-24T03:45:04.037Z,81.66
2018-05-24T03:46:04.023Z,81.46
2018-05-24T03:47:03.754Z,80.79
2018-05-24T03:48:04.008Z,80.26
2018-05-24T03:49:04.025Z,79.78
2018-05-24T03:50:03.748Z,79.59
2018-05-24T03:51:04.016Z,79.49
2018-05-24T03:52:04.163Z,79.14
2018-05-24T03:53:03.746Z,79.05
2018-05-24T03:54:03.731Z,78.57
2018-05-24T03:55:04.001Z,77.8
2018-05-24T03:56:03.985Z,77.9
2018-05-24T03:57:03.733Z,77.51
2018-05-24T03:58:03.973Z,77.56
2018-05-24T03:59:04.221Z,76.5
2018-05-24T04:00:03.729Z,75.87
2018-05-24T04:01:03.724Z,74.81
2018-05-24T04:02:03.711Z,73.69
2018-05-24T04:03:03.957Z,72.83
2018-05-24T04:04:03.958Z,72.96
2018-05-24T04:05:03.974Z,71.81
2018-05-24T04:06:03.701Z,71.14
2018-05-24T04:07:03.782Z,70.98
2018-05-24T04:08:03.693Z,70.11
2018-05-24T04:09:03.705Z,69.34
2018-05-24T04:10:03.690Z,68.76
2018-05-24T04:11:03.963Z,68.6
2018-05-24T04:12:04.087Z,68.51
2018-05-24T04:13:03.960Z,68.48
2018-05-24T04:14:03.957Z,67.83
2018-05-24T04:15:03.956Z,68.03
2018-05-24T04:16:03.683Z,67.07
2018-05-24T04:17:03.682Z,66.88
2018-05-24T04:18:03.690Z,67.26
2018-05-24T04:19:03.954Z,67.74
2018-05-24T04:20:03.953Z,68.03
2018-05-24T04:21:03.939Z,67.45
2018-05-24T04:22:03.947Z,67.45
2018-05-24T04:23:03.955Z,67.26
2018-05-24T04:24:03.929Z,66.88
2018-05-24T04:25:03.948Z,67.16
2018-05-24T04:26:03.674Z,67.07
2018-05-24T04:27:04.082Z,66.68
2018-05-24T04:28:03.926Z,66.49
2018-05-24T04:29:03.686Z,66.58
2018-05-24T04:30:03.942Z,66.58
2018-05-24T04:31:03.683Z,66.49
2018-05-24T04:32:03.922Z,66.58
2018-05-24T04:33:04.102Z,66.97
2018-05-24T04:34:03.935Z,67.22
2018-05-24T04:35:03.938Z,67.71
2018-05-24T04:36:03.678Z,68.57
2018-05-24T04:37:03.919Z,68.48
2018-05-24T04:38:03.927Z,68.63
2018-05-24T04:39:03.659Z,69.5
2018-05-24T04:40:03.934Z,69.12
2018-05-24T04:41:03.917Z,69.69
2018-05-24T04:42:03.926Z,70.17
2018-05-24T04:43:03.652Z,70.04
2018-05-24T04:44:03.925Z,70.33
2018-05-24T04:45:03.912Z,70.52
2018-05-24T04:46:03.653Z,71.29
2018-05-24T04:47:03.909Z,71.39
2018-05-24T04:48:03.924Z,71.48
2018-05-24T04:49:03.639Z,70.9
2018-05-24T04:50:03.917Z,70.37
2018-05-24T04:51:03.909Z,69.89
2018-05-24T04:52:03.912Z,70.27
2018-05-24T04:53:03.636Z,70.37
2018-05-24T04:54:03.902Z,69.4
2018-05-24T04:55:03.630Z,69.44
2018-05-24T04:56:03.641Z,69.15
2018-05-24T04:57:03.623Z,69.15
2018-05-24T04:58:03.638Z,69.06
2018-05-24T04:59:03.620Z,68.96
2018-05-24T05:00:03.635Z,69.34
2018-05-24T05:01:03.870Z,69.15
2018-05-24T05:02:03.886Z,69.6
2018-05-24T05:03:03.880Z,69.4
2018-05-24T05:04:03.627Z,69.31
2018-05-24T05:05:03.899Z,69.6
2018-05-24T05:06:03.869Z,69.6
2018-05-24T05:07:03.862Z,69.98
2018-05-24T05:08:03.860Z,68.96
2018-05-24T05:09:03.620Z,68.86
2018-05-24T05:10:03.862Z,67.99
2018-05-24T05:11:03.876Z,67.07
2018-05-24T05:12:03.600Z,66.49
2018-05-24T05:13:03.873Z,66.88
2018-05-24T05:14:03.658Z,66.62
2018-05-24T05:15:03.597Z,66.04
2018-05-24T05:16:03.622Z,65.88
2018-05-24T05:17:03.596Z,64.82
2018-05-24T05:18:03.601Z,64.37
2018-05-24T05:19:03.855Z,63.79
2018-05-24T05:20:03.611Z,63.12
2018-05-24T05:21:03.873Z,63.21
2018-05-24T05:22:03.600Z,62.66
2018-05-24T05:23:03.879Z,62.76
2018-05-24T05:24:03.853Z,61.8
2018-05-24T05:25:03.873Z,61.25
2018-05-24T05:26:03.603Z,60.48
2018-05-24T05:27:03.871Z,59.64
2018-05-24T05:28:03.858Z,59.16
2018-05-24T05:29:03.617Z,58.42
2018-05-24T05:30:03.858Z,57.64
2018-05-24T05:31:03.881Z,57.64
2018-05-24T05:32:03.929Z,57.54
2018-05-24T05:33:03.884Z,57.35
2018-05-24T05:34:03.886Z,56.71
2018-05-24T05:35:03.639Z,56.8
2018-05-24T05:36:03.877Z,56.25
2018-05-24T05:37:03.622Z,54.8
2018-05-24T05:38:03.912Z,54.73
2018-05-24T05:39:03.904Z,53.96
2018-05-24T05:40:03.900Z,53.09
2018-05-24T05:41:03.654Z,53.21
2018-05-24T05:42:03.902Z,52.92
2018-05-24T05:43:03.927Z,51.78
2018-05-24T05:44:03.908Z,51.78
2018-05-24T05:45:03.934Z,51.3
2018-05-24T05:46:03.917Z,50.55
2018-05-24T05:47:03.689Z,50.55
2018-05-24T05:48:03.937Z,50.26
2018-05-24T05:49:03.693Z,50.55
2018-05-24T05:50:03.695Z,49.77
2018-05-24T05:51:03.705Z,49.87
2018-05-24T05:52:04.033Z,50.65
2018-05-24T05:53:03.957Z,49.77
2018-05-24T05:54:03.975Z,50.45
2018-05-24T05:55:03.986Z,49.87
2018-05-24T05:56:04.000Z,49.19
2018-05-24T05:57:03.982Z,49.29
2018-05-24T05:58:04.001Z,49.68
2018-05-24T05:59:03.991Z,50.07
2018-05-24T06:00:03.760Z,50.07
2018-05-24T06:01:03.749Z,50.07
2018-05-24T06:02:03.769Z,49.77
2018-05-24T06:03:03.761Z,49.58
2018-05-24T06:04:04.033Z,49.77
2018-05-24T06:05:04.033Z,49.77
2018-05-24T06:06:04.050Z,49.68
2018-05-24T06:07:04.062Z,49
2018-05-24T06:08:03.789Z,48.71
2018-05-24T06:09:03.795Z,49
2018-05-24T06:10:04.077Z,48.93
2018-05-24T06:11:03.838Z,48.54
2018-05-24T06:12:04.176Z,47.98
2018-05-24T06:13:04.076Z,47.13
2018-05-24T06:14:04.102Z,46.75
2018-05-24T06:15:04.097Z,46.84
2018-05-24T06:16:03.857Z,46.96
2018-05-24T06:17:03.848Z,46.09
2018-05-24T06:18:03.866Z,45.04
2018-05-24T06:19:04.137Z,44.46
2018-05-24T06:20:03.873Z,44.46
2018-05-24T06:21:03.893Z,44.85
2018-05-24T06:22:04.158Z,44.65
2018-05-24T06:23:04.180Z,44.46
2018-05-24T06:24:04.163Z,45.04
2018-05-24T06:25:03.911Z,44.85
2018-05-24T06:26:04.203Z,44.65
2018-05-24T06:27:04.204Z,44.17
2018-05-24T06:28:04.234Z,43.61
2018-05-24T06:29:04.257Z,43.41
2018-05-24T06:30:04.229Z,43.51
2018-05-24T06:31:04.015Z,43.12
2018-05-24T06:32:04.234Z,42.35
2018-05-24T06:33:04.000Z,43.02
2018-05-24T06:35:04.260Z,44.37
2018-05-24T06:36:04.289Z,44
2018-05-24T06:37:04.282Z,43.15
2018-05-24T06:38:04.052Z,41.8
2018-05-24T06:39:04.315Z,41.53
2018-05-24T06:40:04.330Z,40.66
2018-05-24T06:41:04.068Z,40.78
2018-05-24T06:42:04.084Z,40.68
2018-05-24T06:43:04.100Z,40.39
2018-05-24T06:44:04.383Z,40.68
2018-05-24T06:45:04.394Z,40.37
2018-05-24T06:46:04.382Z,41.24
2018-05-24T06:47:04.406Z,41.44
2018-05-24T06:48:04.146Z,41.26
2018-05-24T06:49:04.171Z,41.26
2018-05-24T06:50:04.167Z,40.68
2018-05-24T06:51:04.195Z,40.68
2018-05-24T06:52:04.452Z,40.68
2018-05-24T06:53:04.215Z,40.68
2018-05-24T06:54:04.464Z,40.8
2018-05-24T06:55:04.227Z,40.8
2018-05-24T06:56:04.489Z,40.7
2018-05-24T06:57:04.527Z,40.41
2018-05-24T06:58:04.506Z,40.6
2018-05-24T06:59:04.531Z,39.62
2018-05-24T07:00:04.742Z,39.84
2018-05-24T07:01:04.558Z,39.16
2018-05-24T07:02:04.554Z,39.16
2018-05-24T07:03:04.582Z,38.79
2018-05-24T07:04:04.317Z,38.49
2018-05-24T07:05:04.342Z,38.32
2018-05-24T07:06:05.022Z,37.46
2018-05-24T07:07:04.836Z,37.46
2018-05-24T07:08:04.369Z,37.37
2018-05-24T07:09:04.643Z,37.37
2018-05-24T07:10:04.382Z,37.55
2018-05-24T07:11:04.828Z,37.63
2018-05-24T07:12:04.689Z,37.71
2018-05-24T07:13:04.430Z,38.1
2018-05-24T07:14:04.441Z,38.38
2018-05-24T07:15:04.439Z,38.77
2018-05-24T07:16:04.717Z,38.95
2018-05-24T07:17:04.725Z,39.24
2018-05-24T07:18:04.477Z,39.24
2018-05-24T07:19:04.471Z,40.29
2018-05-24T07:20:04.760Z,40.19
2018-05-24T07:21:04.494Z,40.19
2018-05-24T07:22:04.516Z,39.72
2018-05-24T07:23:04.775Z,39.82
2018-05-24T07:24:04.792Z,39.16
2018-05-24T07:25:04.800Z,39.16
2018-05-24T07:26:04.544Z,38.87
2018-05-24T07:27:04.619Z,38.2
2018-05-24T07:28:04.827Z,38.22
2018-05-24T07:29:04.842Z,38.32
2018-05-24T07:30:04.598Z,37.83
2018-05-24T07:31:04.600Z,37.35
2018-05-24T07:32:04.868Z,37.35
2018-05-24T07:33:04.868Z,37.73
2018-05-24T07:34:04.634Z,37.45
2018-05-24T07:35:04.670Z,37.63
2018-05-24T07:36:04.955Z,37.46
2018-05-24T07:37:04.905Z,37.65
2018-05-24T07:38:04.678Z,37.07
2018-05-24T07:39:04.979Z,36.88
2018-05-24T07:40:04.954Z,37.55
2018-05-24T07:41:04.733Z,37.27
2018-05-24T07:42:05.017Z,37.46
2018-05-24T07:43:05.055Z,37.17
2018-05-24T07:44:05.041Z,37.17
2018-05-24T07:45:05.392Z,37.37
2018-05-24T07:46:05.059Z,37.46
2018-05-24T07:47:05.094Z,37.37
2018-05-24T07:48:05.082Z,37.37
2018-05-24T07:49:04.821Z,37.37
2018-05-24T07:50:05.114Z,37.07
2018-05-24T07:51:04.861Z,37.27
2018-05-24T07:52:04.879Z,37.55
2018-05-24T07:53:04.887Z,36.6
2018-05-24T07:54:05.197Z,36.21
2018-05-24T07:55:05.171Z,36.11
2018-05-24T07:56:04.923Z,35.92
2018-05-24T07:57:05.176Z,36.31
2018-05-24T07:58:05.598Z,36.6
2018-05-24T07:59:05.211Z,36.41
2018-05-24T08:00:04.971Z,36.21
2018-05-24T08:01:05.228Z,36.04
2018-05-24T08:02:05.277Z,36.23
2018-05-24T08:03:05.249Z,36.23
2018-05-24T08:04:05.359Z,36.8
2018-05-24T08:05:05.457Z,36.19
2018-05-24T08:06:05.280Z,35.51
2018-05-24T08:07:05.340Z,36.1
2018-05-24T08:08:05.324Z,36.1
2018-05-24T08:09:05.036Z,35.8
2018-05-24T08:10:05.302Z,36.29
2018-05-24T08:11:05.349Z,36.39
2018-05-24T08:12:05.337Z,35.71
2018-05-24T08:13:05.345Z,34.92
2018-05-24T08:14:05.349Z,35.71
2018-05-24T08:15:05.358Z,35.9
2018-05-24T08:16:05.111Z,35.61
2018-05-24T08:17:05.386Z,36.1
2018-05-24T08:18:05.153Z,36.49
2018-05-24T08:19:05.392Z,34.83
2018-05-24T08:20:05.430Z,34.92
2018-05-24T08:21:05.180Z,34.83
2018-05-24T08:22:05.467Z,35.8
2018-05-24T08:23:05.455Z,36.37
2018-05-24T08:24:05.469Z,36.57
2018-05-24T08:25:05.207Z,36.18
2018-05-24T08:26:05.233Z,36.1
2018-05-24T08:27:05.498Z,35.12
2018-05-24T08:28:05.499Z,35.71
2018-05-24T08:29:05.513Z,35.49
2018-05-24T08:30:05.563Z,35.98
2018-05-24T08:31:05.579Z,35.3
2018-05-24T08:32:05.549Z,36.37
2018-05-24T08:33:05.556Z,36.06
2018-05-24T08:34:05.316Z,36.16
2018-05-24T08:35:05.674Z,36.55
2018-05-24T08:36:05.609Z,36.16
2018-05-24T08:37:05.660Z,36.25
2018-05-24T08:38:05.367Z,36.14
2018-05-24T08:39:05.655Z,36.9
2018-05-24T08:40:05.396Z,37.39
2018-05-24T08:41:05.395Z,37
2018-05-24T08:42:05.678Z,37
2018-05-24T08:43:05.423Z,37.37
2018-05-24T08:44:05.435Z,37.66
2018-05-24T08:45:05.444Z,37.48
2018-05-24T08:46:05.725Z,36
2018-05-24T08:47:05.915Z,37
2018-05-24T08:48:05.753Z,37.37
2018-05-24T08:49:05.759Z,37.93
2018-05-24T08:50:05.529Z,38.79
2018-05-24T08:51:05.787Z,38.79
2018-05-24T08:52:05.520Z,38.67
2018-05-24T08:53:05.809Z,38.19
2018-05-24T08:54:05.790Z,38.77
2018-05-24T08:55:06.032Z,38.75
2018-05-24T08:56:05.816Z,39.82
2018-05-24T08:57:05.835Z,40.09
2018-05-24T08:58:05.827Z,40.29
2018-05-24T08:59:05.895Z,40.39
2018-05-24T09:00:05.856Z,40.97
2018-05-24T09:01:05.883Z,40.77
2018-05-24T09:02:05.862Z,40.29
2018-05-24T09:03:05.915Z,40.19
2018-05-24T09:04:05.884Z,40.39
2018-05-24T09:05:05.639Z,41.14
2018-05-24T09:06:05.891Z,41.43
2018-05-24T09:07:05.913Z,41.24
2018-05-24T09:08:05.904Z,41.43
2018-05-24T09:09:05.771Z,41.72
2018-05-24T09:10:05.918Z,42.21
2018-05-24T09:11:05.935Z,41.63
2018-05-24T09:12:05.672Z,41.02
2018-05-24T09:13:05.983Z,41.22
2018-05-24T09:14:05.936Z,41.02
2018-05-24T09:15:05.956Z,41.49
2018-05-24T09:16:05.956Z,41.39
2018-05-24T09:17:05.965Z,41.2
2018-05-24T09:18:05.951Z,41.1
2018-05-24T09:19:05.963Z,41.95
2018-05-24T09:20:06.057Z,42.24
2018-05-24T09:21:06.005Z,42.72
2018-05-24T09:22:05.987Z,42.92
2018-05-24T09:23:05.974Z,42.44
2018-05-24T09:24:06.005Z,43.21
2018-05-24T09:25:05.978Z,42.63
2018-05-24T09:26:05.997Z,42.03
2018-05-24T09:27:05.983Z,41.93
2018-05-24T09:29:06.017Z,42.22
2018-05-24T09:30:06.008Z,42.61
2018-05-24T09:31:05.757Z,42.61
2018-05-24T09:32:06.005Z,42.41
2018-05-24T09:33:06.009Z,42.8
2018-05-24T09:34:05.766Z,43
2018-05-24T09:36:06.053Z,43.96
2018-05-24T09:37:05.765Z,43.96
2018-05-24T09:38:06.050Z,42.51
2018-05-24T09:39:06.050Z,41.83
2018-05-24T09:40:06.056Z,42.03
2018-05-24T09:41:05.774Z,42.03
2018-05-24T09:42:05.865Z,42.03
2018-05-24T09:43:06.037Z,42.24
2018-05-24T09:44:06.062Z,42.05
2018-05-24T09:45:18.773Z,41.66
2018-05-24T09:46:06.044Z,41.56
2018-05-24T09:47:06.062Z,41.08
2018-05-24T09:48:06.038Z,40.99
2018-05-24T09:49:05.800Z,41.27
2018-05-24T09:50:06.048Z,42.05
2018-05-24T09:51:05.815Z,42.82
2018-05-24T09:52:06.051Z,43.7
2018-05-24T09:53:06.054Z,44.57
2018-05-24T09:54:06.059Z,44.18
2018-05-24T09:55:06.099Z,44.27
2018-05-24T09:56:06.114Z,44.67
2018-05-24T09:57:05.817Z,44.67
2018-05-24T09:58:05.824Z,44.86
2018-05-24T09:59:05.833Z,44.76
2018-05-24T10:00:06.104Z,44.37
2018-05-24T10:01:05.829Z,44.37
2018-05-24T10:02:05.823Z,44.47
2018-05-24T10:03:06.098Z,44.57
2018-05-24T10:04:05.837Z,43.99
2018-05-24T10:05:06.104Z,43.79
2018-05-24T10:06:05.838Z,43.12
2018-05-24T10:07:06.103Z,43.89
2018-05-24T10:08:06.089Z,44.18
2018-05-24T10:09:06.095Z,44.06
2018-05-24T10:10:06.099Z,44.16
2018-05-24T10:11:05.855Z,44.45
2018-05-24T10:12:06.116Z,44.54
2018-05-24T10:13:06.352Z,44.35
2018-05-24T10:14:05.848Z,44.54
2018-05-24T10:15:18.833Z,44.35
2018-05-24T10:16:07.456Z,44.54
2018-05-24T10:17:06.109Z,44.64
2018-05-24T10:18:06.130Z,44.93
2018-05-24T10:19:06.130Z,45.13
2018-05-24T10:20:06.140Z,44.93
2018-05-24T10:21:06.117Z,44.64
2018-05-24T10:22:06.116Z,44.16
2018-05-24T10:23:06.140Z,44.26
2018-05-24T10:24:06.133Z,42.9
2018-05-24T10:25:06.124Z,43.29
2018-05-24T10:26:05.889Z,43.77
2018-05-24T10:27:05.875Z,43.87
2018-05-24T10:28:06.156Z,43.77
2018-05-24T10:29:06.132Z,43.68
2018-05-24T10:30:05.898Z,42.92
2018-05-24T10:31:06.140Z,42.72
2018-05-24T10:32:06.152Z,42.72
2018-05-24T10:33:06.141Z,42.22
2018-05-24T10:34:06.162Z,42.92
2018-05-24T10:35:05.905Z,43.58
2018-05-24T10:36:05.898Z,43.48
2018-05-24T10:37:06.173Z,43.09
2018-05-24T10:38:06.193Z,42.51
2018-05-24T10:39:06.176Z,42.8
2018-05-24T10:40:06.212Z,42.71
2018-05-24T10:41:06.191Z,42.8
2018-05-24T10:42:05.907Z,42.8
2018-05-24T10:43:06.181Z,43
2018-05-24T10:44:06.427Z,42.9
2018-05-24T10:45:06.188Z,42.9
2018-05-24T10:46:05.912Z,43.48
2018-05-24T10:47:06.188Z,42.9
2018-05-24T10:48:06.189Z,42.9
2018-05-24T10:49:06.266Z,42.71
2018-05-24T10:50:06.172Z,42.13
2018-05-24T10:51:06.350Z,41.25
2018-05-24T10:52:05.927Z,42.4
2018-05-24T10:53:05.928Z,42.22
2018-05-24T10:54:05.945Z,42.13
2018-05-24T10:55:06.200Z,41.93
2018-05-24T10:56:06.363Z,41.74
2018-05-24T10:57:06.231Z,41.93
2018-05-24T10:58:05.931Z,41.83
2018-05-24T10:59:06.209Z,41.93
2018-05-24T11:00:06.190Z,41.74
2018-05-24T11:01:06.207Z,41.64
2018-05-24T11:02:05.937Z,40.96
2018-05-24T11:03:06.365Z,41.25
2018-05-24T11:04:06.209Z,41.25
2018-05-24T11:05:06.234Z,41.64
2018-05-24T11:07:06.207Z,41.93
2018-05-24T11:08:05.955Z,42.8
2018-05-24T11:09:05.960Z,41.74
2018-05-24T11:10:06.218Z,41.55
2018-05-24T11:11:05.948Z,41.35
2018-05-24T11:12:06.217Z,41.25
2018-05-24T11:13:06.205Z,41.06
2018-05-24T11:14:06.225Z,41.25
2018-05-24T11:15:06.457Z,41.25
2018-05-24T11:16:05.977Z,41.35
2018-05-24T11:17:06.239Z,41.25
2018-05-24T11:18:06.214Z,41.25
2018-05-24T11:19:06.232Z,41.45
2018-05-24T11:20:06.233Z,42.03
2018-05-24T11:21:05.992Z,40.96
2018-05-24T11:22:06.271Z,40.67
2018-05-24T11:23:06.217Z,40.38
2018-05-24T11:24:06.231Z,40.38
2018-05-24T11:25:06.303Z,40.19
2018-05-24T11:26:06.000Z,40.19
2018-05-24T11:27:06.237Z,41.06
2018-05-24T11:28:06.243Z,40.77
2018-05-24T11:29:06.228Z,40.86
2018-05-24T11:30:06.254Z,41.06
2018-05-24T11:31:05.986Z,40.19
2018-05-24T11:32:06.390Z,40.38
2018-05-24T11:33:06.310Z,41.06
2018-05-24T11:34:05.998Z,40.96
2018-05-24T11:35:05.985Z,41.25
2018-05-24T11:36:06.489Z,41.06
2018-05-24T11:37:06.482Z,41.06
2018-05-24T11:38:06.257Z,41.25
2018-05-24T11:39:06.257Z,40.19
2018-05-24T11:40:06.244Z,40.86
2018-05-24T11:41:05.988Z,40.86
2018-05-24T11:42:06.258Z,41.08
2018-05-24T11:43:06.378Z,40.4
2018-05-24T11:44:06.259Z,40.21
2018-05-24T11:45:05.994Z,40.67
2018-05-24T11:46:06.027Z,40.79
2018-05-24T11:47:05.997Z,41.08
2018-05-24T11:48:06.033Z,40.99
2018-05-24T11:49:06.261Z,40.99
2018-05-24T11:50:06.289Z,41.37
2018-05-24T11:51:05.996Z,40.96
2018-05-24T11:52:06.411Z,41.08
2018-05-24T11:53:06.262Z,40.77
2018-05-24T11:54:06.309Z,40.31
2018-05-24T11:55:06.278Z,40.28
2018-05-24T11:56:06.261Z,40.86
2018-05-24T11:57:06.334Z,40.38
2018-05-24T11:58:06.298Z,40.58
2018-05-24T11:59:06.300Z,41.06
2018-05-24T12:00:06.271Z,40.86
2018-05-24T12:01:06.030Z,40.86
2018-05-24T12:02:06.265Z,41.06
2018-05-24T12:03:06.285Z,41.25
2018-05-24T12:04:06.275Z,41.25
2018-05-24T12:05:06.295Z,41.25
2018-05-24T12:06:06.024Z,40.28
2018-05-24T12:07:06.452Z,40.48
2018-05-24T12:08:06.276Z,40.38
2018-05-24T12:09:06.275Z,40.96
2018-05-24T12:10:06.301Z,40.38
2018-05-24T12:11:06.297Z,40.67
2018-05-24T12:12:06.046Z,40.38
2018-05-24T12:13:06.309Z,40.38
2018-05-24T12:14:06.282Z,40.48
2018-05-24T12:15:06.404Z,40.77
2018-05-24T12:16:06.523Z,40.86
2018-05-24T12:17:06.325Z,41.08
2018-05-24T12:18:06.285Z,41.17
2018-05-24T12:19:06.056Z,40.99
2018-05-24T12:20:06.292Z,41.17
2018-05-24T12:21:06.315Z,40.31
2018-05-24T12:22:06.299Z,40.01
2018-05-24T12:23:06.336Z,40.31
2018-05-24T12:24:06.338Z,40.79
2018-05-24T12:25:06.318Z,40.21
2018-05-24T12:26:06.301Z,40.11
2018-05-24T12:27:06.301Z,40.11
2018-05-24T12:28:06.318Z,40.59
2018-05-24T12:29:06.433Z,40.4
2018-05-24T12:30:06.325Z,40.01
2018-05-24T12:31:06.050Z,40.23
2018-05-24T12:32:06.321Z,40.91
2018-05-24T12:33:06.330Z,40.33
2018-05-24T12:34:06.054Z,40.42
2018-05-24T12:35:06.328Z,40.23
2018-05-24T12:36:06.058Z,38.78
2018-05-24T12:37:06.341Z,38.87
2018-05-24T12:38:06.060Z,38.78
2018-05-24T12:39:06.335Z,38.48
2018-05-24T12:40:06.073Z,37.9
2018-05-24T12:41:06.080Z,38.09
2018-05-24T12:42:06.368Z,38.37
2018-05-24T12:43:06.335Z,38.76
2018-05-24T12:44:06.347Z,38.76
2018-05-24T12:45:06.348Z,39.62
2018-05-24T12:46:06.349Z,39.43
2018-05-24T12:47:06.079Z,39.72
2018-05-24T12:48:06.359Z,40.33
2018-05-24T12:49:06.573Z,38.96
2018-05-24T12:50:06.352Z,38.68
2018-05-24T12:51:06.334Z,38.58
2018-05-24T12:52:06.363Z,38.78
2018-05-24T12:53:06.082Z,38.87
2018-05-24T12:54:06.362Z,38.87
2018-05-24T12:55:06.341Z,39.26
2018-05-24T12:56:06.353Z,38.58
2018-05-24T12:57:06.341Z,38.19
2018-05-24T12:58:06.371Z,38.19
2018-05-24T12:59:06.348Z,38.78